createdAt,value
2019-04-05T00:00:24.637Z,66.67
2019-04-05T00:05:18.752Z,68.10
2019-04-05T00:10:13.036Z,73.43
2019-04-05T00:15:15.077Z,64.37
2019-04-05T00:20:05.174Z,64.53
2019-04-05T00:24:59.255Z,68.10
2019-04-05T00:29:53.235Z,68.53
2019-04-05T00:34:47.191Z,62.27
2019-04-05T00:39:41.195Z,64.90
2019-04-05T00:44:35.175Z,65.03
2019-04-05T00:49:29.245Z,64.27
2019-04-05T00:54:23.203Z,70.73
2019-04-05T00:59:17.143Z,70.10
2019-04-05T01:04:11.129Z,72.20
2019-04-05T01:09:06.705Z,72.53
2019-04-05T01:14:00.672Z,68.47
2019-04-05T01:18:54.686Z,67.67
2019-04-05T01:23:51.155Z,76.87
2019-04-05T01:28:45.215Z,68.90
2019-04-05T01:33:39.200Z,74.57
2019-04-05T01:38:33.271Z,70.97
2019-04-05T01:43:27.453Z,72.53
2019-04-05T01:48:21.423Z,64.73
2019-04-05T01:53:15.785Z,70.83
2019-04-05T01:58:10.086Z,71.60
2019-04-05T02:03:04.160Z,60.90
2019-04-05T02:07:58.417Z,69.17
2019-04-05T02:12:52.531Z,72.37
2019-04-05T02:17:46.670Z,77.47
2019-04-05T02:22:40.638Z,72.50
2019-04-05T02:27:34.699Z,74.03
2019-04-05T02:32:28.852Z,69.40
2019-04-05T02:37:22.918Z,76.10
2019-04-05T02:42:17.697Z,72.27
2019-04-05T02:47:12.048Z,79.50
2019-04-05T02:52:06.330Z,76.17
2019-04-05T02:57:01.028Z,74.17
2019-04-05T03:01:55.202Z,71.73
2019-04-05T03:06:50.163Z,75.87
2019-04-05T03:11:44.224Z,72.57
2019-04-05T03:16:41.999Z,71.30
2019-04-05T03:21:39.701Z,78.87
2019-04-05T03:26:36.198Z,76.80
2019-04-05T03:31:30.391Z,78.57
2019-04-05T03:36:24.449Z,74.33
2019-04-05T03:41:18.507Z,73.57
2019-04-05T03:46:12.582Z,78.63
2019-04-05T03:51:07.444Z,77.67
2019-04-05T03:56:02.246Z,77.37
2019-04-05T04:00:56.566Z,73.73
2019-04-05T04:05:50.741Z,82.00
2019-04-05T04:10:45.939Z,78.17
2019-04-05T04:15:40.097Z,80.13
2019-04-05T04:20:41.141Z,81.27
2019-04-05T04:25:36.059Z,87.70
2019-04-05T04:30:30.636Z,87.50
2019-04-05T04:35:24.700Z,92.13
2019-04-05T04:40:18.969Z,85.90
2019-04-05T04:45:13.216Z,83.87
2019-04-05T04:50:07.851Z,89.67
2019-04-05T04:55:02.523Z,97.17
2019-04-05T04:59:56.839Z,106.07
2019-04-05T05:04:51.047Z,89.93
2019-04-05T05:09:45.509Z,87.47
2019-04-05T05:14:39.798Z,97.20
2019-04-05T05:19:33.900Z,92.50
2019-04-05T05:24:28.067Z,89.53
2019-04-05T05:29:22.351Z,87.67
2019-04-05T05:34:16.535Z,86.73
2019-04-05T05:39:10.601Z,87.07
2019-04-05T05:44:04.675Z,85.57
2019-04-05T05:48:58.782Z,80.83
2019-04-05T05:53:52.870Z,86.03
2019-04-05T05:58:46.867Z,77.40
2019-04-05T06:03:40.993Z,80.20
2019-04-05T06:08:35.271Z,77.63
2019-04-05T06:13:29.222Z,75.30
2019-04-05T06:18:23.226Z,76.10
2019-04-05T06:23:17.483Z,65.73
2019-04-05T06:28:11.654Z,66.83
2019-04-05T06:33:05.771Z,61.83
2019-04-05T06:37:59.842Z,70.67
2019-04-05T06:42:53.805Z,67.53
2019-04-05T06:47:47.777Z,70.07
2019-04-05T06:52:41.787Z,71.07
2019-04-05T06:57:35.759Z,66.20
2019-04-05T07:02:29.872Z,60.03
2019-04-05T07:07:24.034Z,67.63
2019-04-05T07:12:20.531Z,67.93
2019-04-05T07:17:14.085Z,69.50
2019-04-05T07:22:08.071Z,65.13
2019-04-05T07:27:02.255Z,63.60
2019-04-05T07:31:56.354Z,69.23
2019-04-05T07:36:50.426Z,68.33
2019-04-05T07:41:44.400Z,66.87
2019-04-05T07:46:38.384Z,61.80
2019-04-05T07:51:32.361Z,61.93
2019-04-05T07:56:26.439Z,54.90
2019-04-05T08:01:20.575Z,63.00
2019-04-05T08:06:15.509Z,56.70
2019-04-05T08:11:09.772Z,62.30
2019-04-05T08:16:03.897Z,52.90
2019-04-05T08:20:57.913Z,47.17
2019-04-05T08:25:52.019Z,48.00
2019-04-05T08:30:45.996Z,47.73
2019-04-05T08:35:40.076Z,48.57
2019-04-05T08:40:34.054Z,45.20
2019-04-05T08:45:28.211Z,44.37
2019-04-05T08:50:22.209Z,42.30
2019-04-05T08:55:16.344Z,37.17
2019-04-05T09:00:10.783Z,34.07
2019-04-05T09:05:06.674Z,32.33
2019-04-05T09:10:00.647Z,35.67
2019-04-05T09:14:54.719Z,35.20
2019-04-05T09:19:48.710Z,35.10
2019-04-05T09:24:42.693Z,28.83
2019-04-05T09:29:36.673Z,29.90
2019-04-05T09:34:30.990Z,27.63
2019-04-05T09:39:25.242Z,27.00
2019-04-05T09:44:19.359Z,24.27
2019-04-05T09:49:13.324Z,28.20
2019-04-05T09:54:07.369Z,29.50
2019-04-05T09:59:01.343Z,24.20
2019-04-05T10:03:55.464Z,26.53
2019-04-05T10:08:49.523Z,20.73
2019-04-05T10:13:43.617Z,16.17
2019-04-05T10:18:37.613Z,14.80
2019-04-05T10:23:31.630Z,13.53
2019-04-05T10:28:25.621Z,13.97
2019-04-05T10:33:19.618Z,12.30
2019-04-05T10:38:13.978Z,12.63
2019-04-05T10:43:08.070Z,11.20
2019-04-05T10:48:02.362Z,10.32
2019-04-05T10:52:56.482Z,10.00
2019-04-05T10:57:50.537Z,9.28
2019-04-05T11:02:44.731Z,10.53
2019-04-05T11:07:38.736Z,11.00
2019-04-05T11:12:32.669Z,9.55
2019-04-05T11:17:26.650Z,9.58
2019-04-05T11:22:21.147Z,8.50
2019-04-05T11:27:15.216Z,9.77
2019-04-05T11:32:09.302Z,10.60
2019-04-05T11:37:03.493Z,11.67
2019-04-05T11:41:58.010Z,12.13
2019-04-05T11:46:53.294Z,13.87
2019-04-05T11:51:47.370Z,12.53
2019-04-05T11:56:41.369Z,12.33
2019-04-05T12:01:37.288Z,12.83
2019-04-05T12:06:31.285Z,12.50
2019-04-05T12:11:25.409Z,12.73
2019-04-05T12:16:19.519Z,14.13
2019-04-05T12:21:13.719Z,13.53
2019-04-05T12:26:07.818Z,14.80
2019-04-05T12:31:01.921Z,14.87
2019-04-05T12:35:56.598Z,14.97
2019-04-05T12:40:51.145Z,15.97
2019-04-05T12:45:45.303Z,19.03
2019-04-05T12:50:39.442Z,18.90
2019-04-05T12:55:33.693Z,20.23
2019-04-05T13:00:27.795Z,20.20
2019-04-05T13:05:21.969Z,19.30
2019-04-05T13:10:16.261Z,18.33
2019-04-05T13:15:16.594Z,21.87
2019-04-05T13:20:07.031Z,20.57
2019-04-05T13:25:01.416Z,18.97
2019-04-05T13:29:55.488Z,21.00
2019-04-05T13:34:49.537Z,19.03
2019-04-05T13:39:43.589Z,24.00
2019-04-05T13:44:37.616Z,22.20
2019-04-05T13:49:31.592Z,19.17
2019-04-05T13:54:25.837Z,21.77
2019-04-05T13:59:19.924Z,22.27
2019-04-05T14:04:16.858Z,21.23
2019-04-05T14:09:10.489Z,25.93
2019-04-05T14:14:04.936Z,23.03
2019-04-05T14:18:59.151Z,24.17
2019-04-05T14:23:53.918Z,25.13
2019-04-05T14:28:48.137Z,24.17
2019-04-05T14:33:42.310Z,23.13
2019-04-05T14:38:36.320Z,21.07
2019-04-05T14:43:30.438Z,23.47
2019-04-05T14:48:27.341Z,28.63
2019-04-05T14:53:20.275Z,20.37
2019-04-05T14:58:14.380Z,26.13
2019-04-05T15:03:08.397Z,28.27
2019-04-05T15:08:02.545Z,26.00
2019-04-05T15:12:56.627Z,33.47
2019-04-05T15:17:50.693Z,30.77
2019-04-05T15:22:44.709Z,30.17
2019-04-05T15:27:38.903Z,31.40
2019-04-05T15:32:33.998Z,31.10
2019-04-05T15:37:31.771Z,68.57
2019-04-05T15:42:24.054Z,70.50
2019-04-05T15:47:18.092Z,28.80
2019-04-05T15:52:18.712Z,33.50
2019-04-05T15:57:08.090Z,29.43
2019-04-05T16:02:03.937Z,29.70
2019-04-05T16:06:58.077Z,33.03
2019-04-05T16:11:52.257Z,32.73
2019-04-05T16:16:46.460Z,33.77
2019-04-05T16:21:40.565Z,37.60
2019-04-05T16:26:34.791Z,36.47
2019-04-05T16:31:28.913Z,36.10
2019-04-05T16:36:23.144Z,36.70
2019-04-05T16:41:17.307Z,31.87
2019-04-05T16:46:11.417Z,38.87
2019-04-05T16:51:05.534Z,34.23
2019-04-05T16:55:59.754Z,33.40
2019-04-05T17:00:53.766Z,35.77
2019-04-05T17:05:47.880Z,37.00
2019-04-05T17:10:41.860Z,36.83
2019-04-05T17:15:36.061Z,38.63
2019-04-05T17:20:30.080Z,40.43
2019-04-05T17:25:24.202Z,39.83
2019-04-05T17:30:18.304Z,38.37
2019-04-05T17:35:12.497Z,47.10
2019-04-05T17:40:06.900Z,43.83
2019-04-05T17:45:00.996Z,45.60
2019-04-05T17:49:54.991Z,46.17
2019-04-05T17:54:49.084Z,46.77
2019-04-05T17:59:43.303Z,45.30
2019-04-05T18:04:37.432Z,44.63
2019-04-05T18:09:31.466Z,49.93
2019-04-05T18:14:25.684Z,53.67
2019-04-05T18:19:19.792Z,49.10
2019-04-05T18:24:13.793Z,50.40
2019-04-05T18:29:07.900Z,44.90
2019-04-05T18:34:01.981Z,48.07
2019-04-05T18:38:56.187Z,47.90
2019-04-05T18:43:50.167Z,48.07
2019-04-05T18:48:44.283Z,51.37
2019-04-05T18:53:38.772Z,52.60
2019-04-05T18:58:32.772Z,46.93
2019-04-05T19:03:26.786Z,45.53
2019-04-05T19:08:21.023Z,44.00
2019-04-05T19:13:15.300Z,49.77
2019-04-05T19:18:09.490Z,47.10
2019-04-05T19:23:03.549Z,49.97
2019-04-05T19:27:57.669Z,48.53
2019-04-05T19:52:35.774Z,47.53
2019-04-05T19:57:29.746Z,49.27
2019-04-05T20:02:24.168Z,52.03
2019-04-05T20:07:18.315Z,43.60
2019-04-05T20:12:12.499Z,54.27
2019-04-05T20:17:08.177Z,48.67
2019-04-05T20:22:02.543Z,54.37
2019-04-05T20:26:56.663Z,50.77
2019-04-05T20:31:50.777Z,53.17
2019-04-05T20:36:44.772Z,48.97
2019-04-05T20:41:38.883Z,49.37
2019-04-05T20:46:32.836Z,51.50
2019-04-05T20:51:26.935Z,48.03
2019-04-05T20:56:20.925Z,48.77
2019-04-05T21:01:15.112Z,45.03
2019-04-05T21:06:09.190Z,48.07
2019-04-05T21:11:03.380Z,51.33
2019-04-05T21:15:57.686Z,52.80
2019-04-05T21:20:51.933Z,49.83
2019-04-05T21:25:45.956Z,49.37
2019-04-05T21:30:40.081Z,47.87
2019-04-05T21:35:34.322Z,55.50
2019-04-05T21:40:28.310Z,50.87
2019-04-05T21:45:22.501Z,50.93
2019-04-05T21:50:16.479Z,54.33
2019-04-05T21:55:10.863Z,54.40
2019-04-05T22:00:11.750Z,54.63
2019-04-05T22:05:06.191Z,47.77
2019-04-05T22:10:00.298Z,47.60
2019-04-05T22:14:54.281Z,48.93
2019-04-05T22:19:48.287Z,47.23
2019-04-05T22:24:42.389Z,55.50
2019-04-05T22:29:36.455Z,49.63
2019-04-05T22:34:30.465Z,47.63
2019-04-05T22:39:24.501Z,50.20
2019-04-05T22:44:18.476Z,50.27
2019-04-05T22:49:12.447Z,51.23
2019-04-05T22:54:06.621Z,50.30
2019-04-05T22:59:00.611Z,46.50
2019-04-05T23:03:54.679Z,49.33
2019-04-05T23:08:48.674Z,46.93
2019-04-05T23:13:42.817Z,48.10
2019-04-05T23:18:36.935Z,46.27
2019-04-05T23:23:30.914Z,51.30
2019-04-05T23:28:25.060Z,46.93
2019-04-05T23:33:19.147Z,47.77
2019-04-05T23:38:13.417Z,52.50
2019-04-05T23:43:07.401Z,49.67
2019-04-05T23:48:01.392Z,46.93
2019-04-05T23:52:55.363Z,53.17
2019-04-05T23:57:49.367Z,45.10
